Time;durP1;ratioP1;P1;durP2;ratioP2;P2;SDS_P1;SDS_P2;PMS_P1;PMS_P2;Temp;Humidity;BMP_temperature;BMP_pressure;BME280_temperature;BME280_humidity;BME280_pressure;Samples;Min_cycle;Max_cycle;Signal;HPM_P1;HPM_P2
2022/08/06 00:01:55;;;;;;;1.60;1.47;;;;;;;20.33;62.26;98632.31;5053785;28;20205;-72
2022/08/06 00:04:23;;;;;;;2.93;1.97;;;;;;;20.35;62.10;98630.13;5053891;28;20563;-72
2022/08/06 00:06:49;;;;;;;3.63;1.93;;;;;;;20.21;63.53;98631.72;5036727;28;20249;-72
2022/08/06 00:09:16;;;;;;;1.60;1.50;;;;;;;20.22;63.03;98630.66;5054045;28;20226;-71
2022/08/06 00:11:42;;;;;;;1.80;1.50;;;;;;;20.17;61.39;98630.63;5054098;28;20209;-72
2022/08/06 00:14:09;;;;;;;1.77;1.67;;;;;;;20.23;62.07;98631.47;5053721;28;20675;-71
2022/08/06 00:16:36;;;;;;;4.07;1.63;;;;;;;20.15;61.29;98637.38;5054058;28;20623;-71
2022/08/06 00:19:03;;;;;;;3.03;1.67;;;;;;;20.15;62.46;98631.97;5053878;28;20233;-71
2022/08/06 00:21:30;;;;;;;1.67;1.57;;;;;;;20.14;61.91;98633.06;5053644;28;20208;-71
2022/08/06 00:23:57;;;;;;;1.70;1.60;;;;;;;20.24;60.87;98636.59;5053858;28;20233;-71
2022/08/06 00:26:24;;;;;;;2.73;1.67;;;;;;;20.10;59.65;98631.97;5054127;28;20209;-73
2022/08/06 00:28:51;;;;;;;1.80;1.33;;;;;;;20.22;59.96;98646.03;5053335;28;20225;-72
2022/08/06 00:31:18;;;;;;;2.40;1.67;;;;;;;20.13;60.11;98639.53;5053803;28;20194;-71
2022/08/06 00:33:44;;;;;;;2.03;1.60;;;;;;;20.13;59.59;98636.84;5053441;28;20205;-72
2022/08/06 00:36:11;;;;;;;2.20;1.50;;;;;;;20.07;60.89;98640.59;5053729;28;20205;-72
2022/08/06 00:38:37;;;;;;;3.13;1.50;;;;;;;20.03;61.48;98642.97;5053619;28;20227;-71
2022/08/06 00:41:04;;;;;;;1.70;1.60;;;;;;;20.04;60.71;98633.00;5053312;28;20208;-71
2022/08/06 00:43:31;;;;;;;3.67;1.60;;;;;;;20.03;59.00;98639.50;5053532;28;20221;-71
2022/08/06 00:45:57;;;;;;;2.47;1.57;;;;;;;20.07;59.07;98643.28;5053532;28;20300;-72
2022/08/06 00:48:24;;;;;;;2.50;1.27;;;;;;;20.03;59.49;98636.78;5053492;28;20309;-72
2022/08/06 00:50:50;;;;;;;3.97;1.47;;;;;;;20.08;58.76;98636.81;5053453;28;20208;-71
2022/08/06 00:53:17;;;;;;;3.00;1.37;;;;;;;20.02;59.14;98652.16;5053372;28;20201;-71
2022/08/06 00:55:43;;;;;;;1.33;1.20;;;;;;;20.01;57.65;98655.13;5052968;28;20299;-71
2022/08/06 00:58:10;;;;;;;2.53;1.20;;;;;;;19.83;56.46;98661.81;5053316;28;20300;-71
2022/08/06 01:00:36;;;;;;;2.03;1.53;;;;;;;19.88;57.95;98661.00;5053725;28;20225;-71
2022/08/06 01:03:03;;;;;;;2.10;1.20;;;;;;;19.96;56.67;98657.81;5053127;28;20312;-72
2022/08/06 01:05:29;;;;;;;3.63;1.20;;;;;;;19.93;57.84;98663.75;5052947;28;20664;-71
2022/08/06 01:07:55;;;;;;;2.43;1.40;;;;;;;19.83;57.06;98659.09;5052965;28;20244;-71
2022/08/06 01:10:23;;;;;;;1.70;1.23;;;;;;;19.85;56.77;98661.53;5053219;28;20233;-72
2022/08/06 01:12:49;;;;;;;1.90;1.20;;;;;;;19.82;56.11;98664.75;5053278;28;20205;-72
2022/08/06 01:15:16;;;;;;;1.63;1.30;;;;;;;19.88;56.82;98661.00;5053254;28;20205;-72
2022/08/06 01:17:56;;;;;;;3.07;1.60;;;;;;;19.73;57.00;98659.84;5053280;28;20201;-71
2022/08/06 01:20:44;;;;;;;1.70;1.20;;;;;;;19.67;57.67;98660.91;5053192;28;20229;-72
2022/08/06 01:23:37;;;;;;;1.40;1.20;;;;;;;19.76;57.49;98668.53;5053161;28;20219;-71
2022/08/06 01:26:32;;;;;;;2.53;1.10;;;;;;;19.80;58.75;98669.63;5035558;28;20553;-72
2022/08/06 01:29:07;;;;;;;2.47;1.10;;;;;;;19.82;56.35;98659.38;5052917;28;20328;-71
2022/08/06 01:31:40;;;;;;;2.23;1.20;;;;;;;19.82;56.43;98668.28;5053082;28;20251;-72
2022/08/06 01:34:29;;;;;;;2.27;1.40;;;;;;;19.75;56.72;98665.00;5035216;28;20276;-71
2022/08/06 01:37:29;;;;;;;1.53;1.20;;;;;;;19.79;55.13;98663.41;5035575;28;20680;-71
2022/08/06 01:40:03;;;;;;;2.87;1.37;;;;;;;19.84;55.20;98670.72;5052607;28;20319;-72
2022/08/06 01:42:31;;;;;;;1.67;1.20;;;;;;;19.61;56.00;98674.63;5053058;28;20591;-71
2022/08/06 01:45:01;;;;;;;1.57;1.20;;;;;;;19.46;55.63;98663.78;5053017;28;20292;-71
2022/08/06 01:47:31;;;;;;;1.20;1.10;;;;;;;19.44;55.90;98664.03;5035523;28;20233;-71
2022/08/06 01:50:00;;;;;;;2.70;1.40;;;;;;;19.52;55.78;98668.94;5035359;28;20235;-72
2022/08/06 01:52:29;;;;;;;2.23;1.40;;;;;;;19.32;56.39;98668.81;5052991;28;20571;-72
2022/08/06 01:54:58;;;;;;;2.23;1.20;;;;;;;19.40;57.51;98683.66;5052617;28;20763;-71
2022/08/06 01:57:27;;;;;;;2.20;1.40;;;;;;;19.39;57.39;98680.19;5052612;28;20567;-71
2022/08/06 01:59:56;;;;;;;3.13;1.20;;;;;;;19.46;56.05;98686.16;5052831;28;20229;-72
2022/08/06 02:02:27;;;;;;;2.53;1.30;;;;;;;19.33;56.36;98675.00;5053100;28;20296;-71
2022/08/06 02:04:56;;;;;;;2.53;1.27;;;;;;;19.51;56.12;98678.09;5056588;28;20189;-71
2022/08/06 02:07:25;;;;;;;1.47;1.33;;;;;;;19.39;56.96;98679.34;5038814;28;20209;-71
2022/08/06 02:09:53;;;;;;;2.50;1.10;;;;;;;19.40;56.85;98675.59;5056272;28;20311;-72
2022/08/06 02:12:24;;;;;;;4.10;1.33;;;;;;;19.28;56.26;98674.97;5056400;28;20292;-71
2022/08/06 02:15:00;;;;;;;1.07;1.03;;;;;;;19.30;56.55;98675.53;5022365;28;20186;-72
2022/08/06 02:17:30;;;;;;;1.30;1.20;;;;;;;19.27;57.34;98676.84;5056249;28;20624;-72
2022/08/06 02:20:00;;;;;;;1.10;1.00;;;;;;;19.22;56.41;98670.56;5056630;28;20248;-72
2022/08/06 02:22:32;;;;;;;3.67;1.10;;;;;;;19.07;58.12;98679.38;5056203;28;20193;-72
2022/08/06 02:25:03;;;;;;;1.57;1.20;;;;;;;19.18;57.42;98681.06;5056240;28;20190;-72
2022/08/06 02:27:33;;;;;;;1.67;1.10;;;;;;;19.14;56.85;98679.97;5056056;28;20195;-71
2022/08/06 02:30:01;;;;;;;3.37;1.30;;;;;;;19.07;58.58;98682.09;5055730;28;20738;-71
2022/08/06 02:32:28;;;;;;;1.60;1.20;;;;;;;19.06;57.54;98691.25;5055713;28;20296;-71
2022/08/06 02:34:55;;;;;;;1.40;1.00;;;;;;;19.08;57.91;98683.69;5055935;28;20201;-72
2022/08/06 02:37:37;;;;;;;1.53;1.20;;;;;;;19.08;57.68;98672.91;5055820;28;20220;-72
2022/08/06 02:40:20;;;;;;;2.00;1.30;;;;;;;19.03;57.79;98675.56;5055507;28;20711;-71
2022/08/06 02:42:55;;;;;;;1.13;1.00;;;;;;;19.00;58.48;98686.84;5023401;28;20189;-72
2022/08/06 02:45:35;;;;;;;1.10;1.00;;;;;;;19.07;58.53;98683.94;5038024;28;20555;-71
2022/08/06 02:48:08;;;;;;;2.30;1.30;;;;;;;18.88;58.45;98685.41;5055471;28;20193;-72
2022/08/06 02:50:47;;;;;;;1.80;1.30;;;;;;;18.86;59.20;98687.56;5055554;28;20312;-72
2022/08/06 02:53:19;;;;;;;3.57;1.40;;;;;;;18.81;59.09;98687.50;5055892;28;20200;-72
2022/08/06 02:55:48;;;;;;;4.53;1.63;;;;;;;18.82;60.81;98700.72;5055578;28;20205;-71
2022/08/06 02:58:23;;;;;;;2.20;1.20;;;;;;;19.03;58.70;98691.75;5055529;28;20296;-71
2022/08/06 03:00:52;;;;;;;2.40;1.30;;;;;;;18.86;59.49;98684.88;5055531;28;20277;-72
2022/08/06 03:03:23;;;;;;;1.43;1.30;;;;;;;18.90;59.47;98694.88;5055062;28;20229;-72
2022/08/06 03:05:52;;;;;;;2.57;1.30;;;;;;;18.82;58.97;98695.31;5055688;28;20193;-71
2022/08/06 03:08:23;;;;;;;1.80;1.40;;;;;;;18.77;60.62;98697.97;5055177;28;20236;-71
2022/08/06 03:10:51;;;;;;;3.03;1.40;;;;;;;18.82;60.61;98708.00;5055004;28;20657;-71
2022/08/06 03:13:19;;;;;;;4.20;1.60;;;;;;;18.77;59.73;98699.88;5054885;28;20295;-72
2022/08/06 03:15:47;;;;;;;5.33;1.50;;;;;;;18.92;59.58;98702.69;5054234;28;20292;-72
2022/08/06 03:18:16;;;;;;;2.63;1.40;;;;;;;18.76;60.49;98704.44;5054652;28;20217;-71
2022/08/06 03:20:44;;;;;;;2.47;1.57;;;;;;;18.75;60.87;98699.31;5054969;28;20320;-71
2022/08/06 03:23:13;;;;;;;2.40;1.37;;;;;;;18.75;59.68;98700.13;5054667;28;20696;-72
2022/08/06 03:25:40;;;;;;;2.63;1.30;;;;;;;18.70;59.85;98705.47;5055066;28;20205;-72
2022/08/06 03:28:08;;;;;;;3.57;1.53;;;;;;;18.66;60.04;98698.13;5054840;28;20213;-71
2022/08/06 03:30:37;;;;;;;3.00;1.30;;;;;;;18.67;60.47;98695.19;5054729;28;20326;-72
2022/08/06 03:33:10;;;;;;;1.97;1.30;;;;;;;18.87;60.57;98700.75;5037239;28;20220;-71
2022/08/06 03:35:39;;;;;;;1.40;1.30;;;;;;;18.71;60.70;98696.31;5054775;28;20280;-71
2022/08/06 03:38:08;;;;;;;2.20;1.10;;;;;;;18.52;60.20;98716.59;5054618;28;20295;-72
2022/08/06 03:40:38;;;;;;;2.33;1.60;;;;;;;18.50;60.83;98729.50;5054466;28;20308;-71
2022/08/06 03:43:05;;;;;;;2.20;1.50;;;;;;;18.59;60.21;98725.28;5054263;28;20232;-71
2022/08/06 03:45:38;;;;;;;2.27;1.30;;;;;;;18.46;60.45;98728.38;5054089;28;20207;-72
2022/08/06 03:48:07;;;;;;;2.07;1.33;;;;;;;18.48;61.09;98726.25;5054361;28;20276;-71
2022/08/06 03:50:40;;;;;;;3.37;1.43;;;;;;;18.55;61.57;98717.97;5054223;28;20233;-72
2022/08/06 03:53:13;;;;;;;1.63;1.20;;;;;;;18.65;61.58;98731.53;5054386;28;20194;-71
2022/08/06 03:55:42;;;;;;;2.13;1.40;;;;;;;18.53;60.83;98723.59;5055281;28;20192;-72
2022/08/06 03:58:12;;;;;;;2.50;1.30;;;;;;;18.57;61.35;98723.91;5054317;28;20295;-71
2022/08/06 04:00:47;;;;;;;2.27;1.57;;;;;;;18.46;61.35;98735.66;5054151;28;20233;-72
2022/08/06 04:03:16;;;;;;;1.30;1.20;;;;;;;18.56;61.45;98733.88;5053969;28;20197;-71
2022/08/06 04:05:43;;;;;;;1.80;1.20;;;;;;;18.50;61.35;98744.84;5053999;28;20236;-72
2022/08/06 04:08:10;;;;;;;2.60;1.40;;;;;;;18.46;61.17;98725.66;5020218;28;20300;-72
2022/08/06 04:10:42;;;;;;;3.37;1.57;;;;;;;18.36;62.02;98730.94;5053774;28;20225;-71
2022/08/06 04:13:15;;;;;;;2.17;1.30;;;;;;;18.33;61.42;98734.13;5036100;28;20196;-71
2022/08/06 04:15:42;;;;;;;3.00;1.40;;;;;;;18.54;61.65;98737.88;5053858;28;20189;-71
2022/08/06 04:18:13;;;;;;;1.80;1.30;;;;;;;18.45;61.37;98748.28;5053493;28;20295;-72
2022/08/06 04:20:43;;;;;;;2.13;1.30;;;;;;;18.47;61.35;98748.88;5053568;28;20220;-72
2022/08/06 04:23:10;;;;;;;1.73;1.30;;;;;;;18.55;61.52;98744.91;5053813;28;20215;-71
2022/08/06 04:25:40;;;;;;;2.37;1.37;;;;;;;18.59;61.82;98746.81;5053408;28;20201;-71
2022/08/06 04:28:07;;;;;;;4.70;1.50;;;;;;;18.47;63.11;98754.25;5036222;28;20190;-71
2022/08/06 04:30:36;;;;;;;2.20;1.30;;;;;;;18.53;62.76;98750.53;5053763;28;20672;-71
2022/08/06 04:33:04;;;;;;;2.33;1.20;;;;;;;18.53;61.91;98749.72;5053681;28;20205;-71
2022/08/06 04:35:31;;;;;;;1.50;1.10;;;;;;;18.33;61.93;98742.22;5053270;28;20687;-72
2022/08/06 04:37:59;;;;;;;1.30;1.10;;;;;;;18.44;62.93;98752.06;5053642;28;20302;-72
2022/08/06 04:40:26;;;;;;;2.20;1.60;;;;;;;18.53;62.67;98760.47;5053465;28;20225;-71
2022/08/06 04:42:53;;;;;;;2.60;1.40;;;;;;;18.51;62.70;98758.03;5053580;28;20211;-72
2022/08/06 04:45:20;;;;;;;1.87;1.40;;;;;;;18.55;61.78;98769.94;5053366;28;20231;-72
2022/08/06 04:47:49;;;;;;;1.57;1.33;;;;;;;18.36;61.88;98774.03;5053123;28;20205;-72
2022/08/06 04:50:15;;;;;;;2.10;1.30;;;;;;;18.50;61.88;98771.78;5053397;28;20320;-71
2022/08/06 04:52:42;;;;;;;1.80;1.50;;;;;;;18.47;62.37;98778.47;5053120;28;20295;-72
2022/08/06 04:55:08;;;;;;;2.03;1.47;;;;;;;18.42;63.24;98778.41;5053433;28;20627;-71
2022/08/06 04:57:35;;;;;;;3.60;1.50;;;;;;;18.24;62.72;98776.00;5053451;28;20205;-71
2022/08/06 05:00:01;;;;;;;1.57;1.40;;;;;;;18.25;63.18;98774.13;5053159;28;20312;-72
2022/08/06 05:02:27;;;;;;;3.33;1.43;;;;;;;18.25;63.24;98774.94;5053589;28;20295;-71
2022/08/06 05:04:56;;;;;;;3.53;1.50;;;;;;;18.40;63.49;98780.53;5052915;28;20580;-71
2022/08/06 05:07:28;;;;;;;2.40;1.20;;;;;;;18.59;62.30;98784.53;5053103;28;20576;-71
2022/08/06 05:09:56;;;;;;;1.77;1.30;;;;;;;18.41;62.63;98782.16;5053265;28;20261;-71
2022/08/06 05:12:33;;;;;;;3.00;1.50;;;;;;;18.53;62.69;98792.81;5052999;28;20303;-72
2022/08/06 05:15:20;;;;;;;2.47;1.37;;;;;;;18.41;62.87;98795.63;5053376;28;20189;-72
2022/08/06 05:17:52;;;;;;;2.60;1.30;;;;;;;18.38;64.04;98800.72;5053117;28;20201;-71
2022/08/06 05:20:20;;;;;;;2.40;1.60;;;;;;;18.35;63.63;98804.72;5053357;28;20228;-71
2022/08/06 05:22:57;;;;;;;1.50;1.40;;;;;;;18.43;63.68;98806.97;5053230;28;20291;-71
2022/08/06 05:25:24;;;;;;;3.03;1.30;;;;;;;18.39;64.33;98811.22;5053726;28;20244;-72
2022/08/06 05:27:51;;;;;;;2.83;1.50;;;;;;;18.65;63.15;98798.88;5053197;28;20288;-72
2022/08/06 05:30:17;;;;;;;1.87;1.60;;;;;;;18.62;64.39;98800.19;5052928;28;20320;-71
2022/08/06 05:32:45;;;;;;;2.20;1.43;;;;;;;18.62;64.13;98802.06;5052814;28;20211;-71
2022/08/06 05:35:13;;;;;;;1.97;1.43;;;;;;;18.54;63.07;98806.00;5053032;28;20571;-72
2022/08/06 05:37:39;;;;;;;1.60;1.47;;;;;;;18.26;63.96;98811.56;5053870;28;20288;-71
2022/08/06 05:40:07;;;;;;;3.17;1.37;;;;;;;18.36;64.25;98813.59;5056646;28;20603;-71
2022/08/06 05:42:34;;;;;;;1.53;1.27;;;;;;;18.35;65.37;98810.09;5056597;28;20746;-72
2022/08/06 05:45:00;;;;;;;2.40;1.23;;;;;;;18.31;64.43;98816.19;5056761;28;20236;-71
2022/08/06 05:47:34;;;;;;;1.50;1.40;;;;;;;18.30;65.05;98820.78;5056816;28;20292;-71
2022/08/06 05:50:08;;;;;;;2.10;1.37;;;;;;;18.42;64.99;98816.09;5056618;28;20252;-71
2022/08/06 05:53:00;;;;;;;2.47;1.40;;;;;;;18.49;64.71;98821.28;5056482;28;20192;-71
2022/08/06 05:55:46;;;;;;;2.73;1.50;;;;;;;18.43;64.99;98820.44;5056334;28;20711;-71
2022/08/06 05:58:20;;;;;;;2.03;1.30;;;;;;;18.53;64.95;98825.94;5039250;28;20192;-72
2022/08/06 06:00:48;;;;;;;2.10;1.47;;;;;;;18.66;64.19;98825.56;5057191;28;20196;-72
2022/08/06 06:03:18;;;;;;;3.43;1.80;;;;;;;18.57;63.39;98829.75;5038398;28;20212;-72
2022/08/06 06:05:45;;;;;;;2.37;1.30;;;;;;;18.38;64.05;98833.84;5056368;28;20221;-71
2022/08/06 06:08:12;;;;;;;2.67;1.50;;;;;;;18.46;64.64;98833.38;5056458;28;20628;-71
2022/08/06 06:10:40;;;;;;;2.50;1.40;;;;;;;18.86;64.25;98838.44;5056474;28;20311;-71
2022/08/06 06:13:08;;;;;;;2.93;1.30;;;;;;;19.03;63.69;98837.28;5055848;28;20304;-71
2022/08/06 06:15:42;;;;;;;1.53;1.43;;;;;;;18.95;64.72;98826.16;5056153;28;20201;-71
2022/08/06 06:18:33;;;;;;;2.73;1.43;;;;;;;19.04;63.07;98827.28;5056290;28;20209;-72
2022/08/06 06:21:13;;;;;;;2.50;1.63;;;;;;;18.98;63.63;98834.53;5056696;28;20194;-71
2022/08/06 06:23:47;;;;;;;4.07;1.40;;;;;;;18.93;62.93;98839.06;5056317;28;20193;-71
2022/08/06 06:26:39;;;;;;;3.33;1.70;;;;;;;18.96;62.47;98841.25;5038370;28;20195;-72
2022/08/06 06:29:17;;;;;;;2.73;1.70;;;;;;;19.22;62.10;98849.38;5055816;28;20236;-71
2022/08/06 06:32:02;;;;;;;3.13;1.60;;;;;;;19.22;63.36;98845.81;5055735;28;20298;-72
2022/08/06 06:34:46;;;;;;;2.97;1.50;;;;;;;19.32;63.12;98854.84;5038096;28;20186;-71
2022/08/06 06:37:25;;;;;;;2.67;1.67;;;;;;;19.45;62.44;98850.94;5023264;28;20189;-71
2022/08/06 06:40:19;;;;;;;1.60;1.50;;;;;;;19.21;62.65;98855.81;5055655;28;20235;-71
2022/08/06 06:42:57;;;;;;;4.73;1.60;;;;;;;19.26;62.12;98860.44;5055680;28;20224;-72
2022/08/06 06:45:42;;;;;;;2.87;1.53;;;;;;;19.39;61.78;98860.03;5038671;28;20209;-71
2022/08/06 06:48:24;;;;;;;2.00;1.80;;;;;;;19.38;63.01;98850.31;5037753;28;20716;-72
2022/08/06 06:50:55;;;;;;;3.17;1.67;;;;;;;19.52;61.28;98857.75;5055669;28;20276;-71
2022/08/06 06:53:24;;;;;;;1.73;1.57;;;;;;;19.75;61.32;98861.19;5055384;28;20276;-71
2022/08/06 06:55:57;;;;;;;3.17;1.70;;;;;;;19.78;61.29;98866.84;5055157;28;20263;-71
2022/08/06 06:58:41;;;;;;;2.70;1.50;;;;;;;19.72;60.74;98867.91;5055142;28;20201;-71
2022/08/06 07:01:13;;;;;;;4.47;1.50;;;;;;;19.93;61.24;98866.97;5054924;28;20564;-71
2022/08/06 07:03:41;;;;;;;2.23;1.50;;;;;;;19.77;61.34;98877.91;5055282;28;20272;-71
2022/08/06 07:06:09;;;;;;;2.23;1.53;;;;;;;20.03;60.04;98874.34;5055027;28;20237;-71
2022/08/06 07:08:44;;;;;;;3.13;1.60;;;;;;;19.96;60.71;98876.44;5054681;28;20671;-71
2022/08/06 07:11:14;;;;;;;7.87;2.00;;;;;;;19.53;61.35;98874.72;5054962;28;20658;-71
2022/08/06 07:13:44;;;;;;;4.27;1.83;;;;;;;19.71;61.99;98871.66;5055230;28;20209;-71
2022/08/06 07:16:13;;;;;;;2.70;1.60;;;;;;;19.65;61.07;98880.78;5037720;28;20288;-71
2022/08/06 07:18:40;;;;;;;2.83;1.57;;;;;;;19.63;61.21;98881.03;5037329;28;20294;-72
2022/08/06 07:21:07;;;;;;;2.80;1.53;;;;;;;19.42;61.61;98876.50;5054458;28;20576;-71
2022/08/06 07:23:35;;;;;;;3.03;1.83;;;;;;;19.47;61.08;98883.84;5054908;28;20259;-72
2022/08/06 07:26:02;;;;;;;3.20;1.93;;;;;;;19.41;61.44;98885.69;5054842;28;20672;-71
2022/08/06 07:28:30;;;;;;;3.73;1.70;;;;;;;19.48;62.23;98880.91;5054517;28;20215;-71
2022/08/06 07:30:59;;;;;;;3.43;1.77;;;;;;;19.58;62.36;98872.91;5054222;28;20267;-70
2022/08/06 07:33:27;;;;;;;3.20;1.60;;;;;;;19.83;61.60;98890.34;5054692;28;20262;-70
2022/08/06 07:35:54;;;;;;;3.53;1.90;;;;;;;19.80;60.94;98885.50;5054210;28;20201;-70
2022/08/06 07:38:22;;;;;;;3.00;1.70;;;;;;;19.63;60.84;98882.94;5054344;28;20304;-70
2022/08/06 07:40:54;;;;;;;2.10;1.70;;;;;;;19.72;60.71;98888.66;5054569;28;20205;-70
2022/08/06 07:43:25;;;;;;;1.60;1.50;;;;;;;19.77;60.97;98887.63;5053861;28;20335;-70
2022/08/06 07:45:57;;;;;;;6.03;1.60;;;;;;;19.96;59.28;98889.91;5054347;28;20296;-70
2022/08/06 07:48:37;;;;;;;2.90;1.53;;;;;;;19.93;60.00;98885.06;5053976;28;20206;-70
2022/08/06 07:51:05;;;;;;;3.33;1.97;;;;;;;19.92;59.46;98884.22;5054546;28;20189;-70
2022/08/06 07:53:34;;;;;;;3.27;1.60;;;;;;;20.13;58.57;98883.34;5054298;28;20205;-70
2022/08/06 07:56:04;;;;;;;2.80;1.70;;;;;;;20.14;58.58;98881.44;5053713;28;20213;-70
2022/08/06 07:58:33;;;;;;;4.43;1.70;;;;;;;20.33;57.82;98880.75;5053701;28;20201;-70
2022/08/06 08:01:00;;;;;;;4.37;1.60;;;;;;;20.49;58.55;98887.06;5053114;28;20296;-70
2022/08/06 08:06:23;;;;;;;2.13;1.67;;;;;;;20.37;58.05;98875.66;5039116;28;20196;-70
2022/08/06 08:08:59;;;;;;;2.77;1.70;;;;;;;20.44;57.72;98881.63;5054085;28;20229;-70
2022/08/06 08:11:26;;;;;;;2.40;1.73;;;;;;;20.58;56.71;98871.97;5053860;28;20272;-70
2022/08/06 08:13:58;;;;;;;2.73;1.80;;;;;;;20.62;56.91;98871.19;5053654;28;20216;-70
2022/08/06 08:16:26;;;;;;;3.17;1.63;;;;;;;20.76;56.60;98879.63;5053417;28;20653;-70
2022/08/06 08:18:53;;;;;;;3.43;1.70;;;;;;;20.96;56.81;98872.44;5053518;28;20587;-70
2022/08/06 08:21:20;;;;;;;3.80;1.73;;;;;;;21.17;56.30;98870.59;5053191;28;20227;-70
2022/08/06 08:23:48;;;;;;;2.97;2.00;;;;;;;21.49;53.87;98876.59;5053341;28;20377;-70
2022/08/06 08:26:15;;;;;;;2.03;1.50;;;;;;;21.45;53.78;98867.41;5053583;28;20236;-71
2022/08/06 08:28:41;;;;;;;1.87;1.40;;;;;;;21.54;53.64;98863.91;5053395;28;20232;-70
2022/08/06 08:31:08;;;;;;;2.27;1.70;;;;;;;21.76;53.15;98852.84;5053251;28;20683;-70
2022/08/06 08:33:35;;;;;;;2.80;1.60;;;;;;;21.75;52.00;98856.63;5053101;28;20213;-70
2022/08/06 08:36:02;;;;;;;1.87;1.50;;;;;;;21.58;53.33;98861.47;5053272;28;20211;-70
2022/08/06 08:38:33;;;;;;;4.17;1.70;;;;;;;21.59;51.89;98861.19;5053274;28;20228;-70
2022/08/06 08:41:07;;;;;;;4.00;1.60;;;;;;;21.42;54.42;98866.06;5053405;28;20201;-70
2022/08/06 08:43:40;;;;;;;2.27;1.53;;;;;;;21.35;53.28;98864.69;5053116;28;20707;-70
2022/08/06 08:46:10;;;;;;;1.40;1.30;;;;;;;21.52;52.46;98867.97;5052892;28;20240;-70
2022/08/06 08:48:37;;;;;;;2.40;1.67;;;;;;;21.31;52.63;98877.13;5053363;28;20579;-70
2022/08/06 08:51:05;;;;;;;2.57;1.50;;;;;;;21.14;52.53;98873.81;5053452;28;20208;-70
2022/08/06 08:53:41;;;;;;;2.13;1.57;;;;;;;21.32;53.71;98876.03;5053314;28;20304;-70
2022/08/06 08:56:08;;;;;;;1.87;1.67;;;;;;;21.20;53.52;98876.28;5035333;28;20639;-70
2022/08/06 08:58:36;;;;;;;2.23;1.67;;;;;;;20.89;53.57;98862.94;5053025;28;20200;-70
2022/08/06 09:01:06;;;;;;;2.67;1.60;;;;;;;21.32;52.91;98870.63;5052765;28;20205;-70
2022/08/06 09:03:35;;;;;;;3.07;1.40;;;;;;;21.30;52.84;98870.88;5053215;28;20205;-70
2022/08/06 09:06:03;;;;;;;1.90;1.60;;;;;;;21.62;53.36;98871.47;5052968;28;20229;-70
2022/08/06 09:08:30;;;;;;;2.40;1.50;;;;;;;21.32;53.57;98874.16;5052589;28;20209;-70
2022/08/06 09:10:57;;;;;;;3.10;1.90;;;;;;;21.13;53.84;98874.91;5052934;28;20205;-70
2022/08/06 09:13:28;;;;;;;1.87;1.67;;;;;;;21.20;53.65;98876.28;5055175;28;20296;-70
2022/08/06 09:15:55;;;;;;;1.67;1.57;;;;;;;21.30;52.11;98880.91;5056992;28;20211;-70
2022/08/06 09:18:22;;;;;;;2.63;1.67;;;;;;;21.54;52.18;98888.25;5057143;28;20201;-71
2022/08/06 09:20:49;;;;;;;2.77;1.43;;;;;;;21.81;50.92;98882.59;5057232;28;20303;-70
2022/08/06 09:23:16;;;;;;;2.77;1.80;;;;;;;21.81;49.95;98885.31;5057157;28;20209;-70
2022/08/06 09:25:48;;;;;;;1.60;1.50;;;;;;;21.54;51.24;98890.13;5057094;28;20231;-70
2022/08/06 09:28:37;;;;;;;6.73;2.00;;;;;;;21.38;53.14;98891.22;5056812;28;20200;-70
2022/08/06 09:31:08;;;;;;;4.70;1.80;;;;;;;21.40;53.02;98892.56;5056948;28;20648;-70
2022/08/06 09:33:37;;;;;;;3.03;1.70;;;;;;;21.86;50.79;98896.97;5056966;28;20295;-70
2022/08/06 09:36:09;;;;;;;2.90;1.70;;;;;;;22.11;48.61;98894.22;5056918;28;20288;-70
2022/08/06 09:38:52;;;;;;;2.80;1.50;;;;;;;22.19;48.51;98898.28;5057068;28;20190;-70
2022/08/06 09:41:20;;;;;;;1.80;1.40;;;;;;;21.77;49.35;98893.19;5056709;28;20288;-70
2022/08/06 09:43:50;;;;;;;2.57;1.70;;;;;;;21.54;51.23;98892.84;5056752;28;20320;-70
2022/08/06 09:46:18;;;;;;;2.07;1.60;;;;;;;21.75;50.92;98889.91;5056661;28;20235;-70
2022/08/06 09:48:57;;;;;;;2.07;1.60;;;;;;;22.14;49.97;98882.84;5056040;28;20735;-70
2022/08/06 09:51:24;;;;;;;3.23;1.60;;;;;;;22.32;48.87;98889.59;5056297;28;20208;-70
2022/08/06 09:53:58;;;;;;;2.80;1.83;;;;;;;21.77;49.29;98885.06;5056060;28;20205;-71
2022/08/06 09:56:27;;;;;;;2.83;1.53;;;;;;;21.86;49.98;98886.13;5056159;28;20220;-70
2022/08/06 09:59:14;;;;;;;4.40;1.77;;;;;;;21.89;49.77;98895.63;5056282;28;20225;-70
2022/08/06 10:01:43;;;;;;;2.70;1.40;;;;;;;22.28;48.62;98883.09;5056056;28;20402;-70
2022/08/06 10:04:23;;;;;;;2.87;1.87;;;;;;;22.12;48.52;98890.44;5056245;28;20288;-70
2022/08/06 10:07:03;;;;;;;3.03;1.47;;;;;;;22.02;49.47;98884.25;5056264;28;20219;-70
2022/08/06 10:09:32;;;;;;;4.13;2.60;;;;;;;22.11;49.23;98893.44;5055824;28;20579;-70
2022/08/06 10:11:59;;;;;;;3.03;1.80;;;;;;;21.86;48.91;98890.72;5055744;28;20574;-70
2022/08/06 10:14:33;;;;;;;2.60;1.50;;;;;;;21.86;48.57;98890.72;5055417;28;20256;-70
2022/08/06 10:17:23;;;;;;;1.53;1.30;;;;;;;21.80;49.50;98887.19;5055853;28;20291;-70
2022/08/06 10:20:15;;;;;;;2.60;1.60;;;;;;;22.09;49.81;98901.00;5055923;28;20631;-70
2022/08/06 10:22:54;;;;;;;3.10;2.80;;;;;;;21.82;49.13;98898.59;5055937;28;20198;-70
2022/08/06 10:25:23;;;;;;;1.90;1.50;;;;;;;21.68;48.94;98907.47;5055651;28;20220;-70
2022/08/06 10:27:51;;;;;;;2.07;1.80;;;;;;;21.35;49.56;98897.16;5055511;28;20555;-70
2022/08/06 10:30:17;;;;;;;3.13;1.80;;;;;;;21.25;50.67;98894.44;5055424;28;20239;-70
2022/08/06 10:32:54;;;;;;;2.53;1.70;;;;;;;20.94;50.25;98885.38;5055760;28;20212;-71
2022/08/06 10:35:24;;;;;;;1.90;1.80;;;;;;;21.05;50.35;98886.25;5055908;28;20192;-70
2022/08/06 10:37:56;;;;;;;4.20;1.70;;;;;;;21.42;50.81;98884.16;5055738;28;20186;-70
2022/08/06 10:40:23;;;;;;;2.40;1.60;;;;;;;21.68;48.78;98888.53;5055675;28;20320;-70
2022/08/06 10:42:53;;;;;;;5.33;1.67;;;;;;;21.83;49.02;98883.13;5055707;28;20201;-70
2022/08/06 10:45:20;;;;;;;3.77;1.73;;;;;;;22.07;48.96;98892.34;5055156;28;20240;-70
2022/08/06 10:47:48;;;;;;;2.07;1.83;;;;;;;22.04;48.16;98882.06;5054868;28;20571;-70
2022/08/06 10:50:15;;;;;;;3.10;1.43;;;;;;;22.18;48.05;98878.53;5055255;28;20312;-70
2022/08/06 10:52:42;;;;;;;1.63;1.50;;;;;;;22.44;46.89;98876.56;5055666;28;20301;-70
2022/08/06 10:55:11;;;;;;;1.93;1.30;;;;;;;22.73;47.20;98885.72;5055410;28;20292;-70
2022/08/06 10:57:40;;;;;;;2.43;1.77;;;;;;;22.94;46.16;98871.81;5055195;28;20325;-70
2022/08/06 11:00:07;;;;;;;1.80;1.50;;;;;;;23.65;43.38;98877.63;5054926;28;20233;-70
2022/08/06 11:03:04;;;;;;;4.63;1.50;;;;;;;23.63;43.13;98880.63;5054651;28;20206;-70
2022/08/06 11:05:38;;;;;;;2.15;1.48;;;;;;;23.28;43.77;98874.63;5054712;28;20219;-70
2022/08/06 11:08:25;;;;;;;4.43;2.17;;;;;;;23.20;44.35;98877.94;5054864;28;20296;-70
2022/08/06 11:11:10;;;;;;;2.55;1.50;;;;;;;23.46;44.50;98865.81;5036958;28;20280;-69
2022/08/06 11:13:52;;;;;;;2.25;1.50;;;;;;;23.21;43.89;98864.09;5054885;28;20668;-70
2022/08/06 11:16:26;;;;;;;2.40;1.45;;;;;;;22.19;44.96;98872.00;5037597;28;20272;-70
2022/08/06 11:19:13;;;;;;;2.47;1.40;;;;;;;22.47;45.70;98863.31;5054907;28;20320;-70
2022/08/06 11:21:39;;;;;;;4.28;1.70;;;;;;;22.97;44.84;98865.00;5054873;28;20292;-70
2022/08/06 11:24:07;;;;;;;1.75;1.63;;;;;;;23.18;45.07;98861.09;5054814;28;20292;-70
2022/08/06 11:26:39;;;;;;;2.38;1.70;;;;;;;23.23;43.43;98859.19;5054256;28;20659;-70
2022/08/06 11:29:08;;;;;;;3.90;1.80;;;;;;;22.97;45.59;98859.59;5054380;28;20241;-70
2022/08/06 11:31:39;;;;;;;1.50;1.40;;;;;;;23.05;44.78;98850.84;5054522;28;20205;-70
2022/08/06 11:34:13;;;;;;;4.18;2.03;;;;;;;23.30;44.47;98842.59;5053995;28;20673;-70
2022/08/06 11:36:46;;;;;;;5.53;1.50;;;;;;;23.06;45.43;98855.19;5052934;28;20628;-70
2022/08/06 11:39:12;;;;;;;2.40;1.70;;;;;;;22.95;45.09;98848.19;5054353;28;20307;-70
2022/08/06 11:42:03;;;;;;;3.30;1.60;;;;;;;22.75;45.08;98857.22;5054349;28;20291;-70
2022/08/06 11:44:34;;;;;;;2.13;1.30;;;;;;;22.75;45.62;98842.88;5054259;28;20186;-71
2022/08/06 11:47:19;;;;;;;3.20;1.47;;;;;;;22.91;45.55;98841.69;5054372;28;20232;-70
2022/08/06 11:49:47;;;;;;;2.00;1.50;;;;;;;23.04;43.55;98843.81;5054350;28;20221;-70
2022/08/06 11:52:39;;;;;;;3.00;1.47;;;;;;;23.49;44.06;98835.41;5054261;28;20202;-70
2022/08/06 11:55:08;;;;;;;3.53;1.52;;;;;;;23.80;43.56;98837.59;5054154;28;20194;-70
2022/08/06 11:57:35;;;;;;;3.35;1.73;;;;;;;23.63;42.44;98833.66;5053988;28;20300;-70